createdAt,value
2022-12-25T00:00:58.241Z,100270.91
2022-12-25T00:03:30.045Z,100281.56
2022-12-25T00:06:03.154Z,100291.48
2022-12-25T00:08:35.201Z,100279.52
2022-12-25T00:11:09.801Z,100270.58
2022-12-25T00:13:41.477Z,100267.65
2022-12-25T00:16:16.547Z,100272.08
2022-12-25T00:18:49.120Z,100276.31
2022-12-25T00:21:21.414Z,100288.36
2022-12-25T00:23:57.007Z,100295.42
2022-12-25T00:26:29.861Z,100299.73
2022-12-25T00:29:07.793Z,100295.98
2022-12-25T00:31:42.508Z,100300.23
2022-12-25T00:34:12.751Z,100301.05
2022-12-25T00:36:44.957Z,100300.15
2022-12-25T00:39:16.972Z,100307.43
2022-12-25T00:42:06.200Z,100330.02
2022-12-25T00:44:42.577Z,100337.27
2022-12-25T00:47:14.125Z,100330.68
2022-12-25T00:49:46.995Z,100330.91
2022-12-25T00:52:18.883Z,100336.95
2022-12-25T00:54:50.287Z,100341.59
2022-12-25T00:57:21.837Z,100339.88
2022-12-25T00:59:53.474Z,100332.71
2022-12-25T01:02:25.728Z,100332.05
2022-12-25T01:04:58.577Z,100340.01
2022-12-25T01:07:30.817Z,100342.08
2022-12-25T01:10:19.920Z,100341.73
2022-12-25T01:12:52.306Z,100339.60
2022-12-25T01:15:24.311Z,100339.53
2022-12-25T01:17:55.942Z,100342.23
2022-12-25T01:20:27.812Z,100339.55
2022-12-25T01:22:59.301Z,100339.20
2022-12-25T01:25:30.991Z,100342.39
2022-12-25T01:28:02.623Z,100346.65
2022-12-25T01:30:34.723Z,100348.82
2022-12-25T01:33:06.416Z,100351.02
2022-12-25T01:35:40.507Z,100356.67
2022-12-25T01:38:12.169Z,100350.89
2022-12-25T01:40:43.668Z,100350.81
2022-12-25T01:43:24.718Z,100349.96
2022-12-25T01:45:56.799Z,100356.95
2022-12-25T01:48:32.102Z,100357.77
2022-12-25T01:51:07.719Z,100355.20
2022-12-25T01:53:40.874Z,100357.52
2022-12-25T01:56:13.383Z,100353.16
2022-12-25T01:58:45.007Z,100354.46
2022-12-25T02:01:16.667Z,100352.30
2022-12-25T02:03:48.302Z,100345.33
2022-12-25T02:06:19.896Z,100342.61
2022-12-25T02:08:52.463Z,100349.45
2022-12-25T02:11:37.688Z,100351.55
2022-12-25T02:14:09.579Z,100352.48
2022-12-25T02:16:57.005Z,100359.02
2022-12-25T02:19:53.053Z,100359.34
2022-12-25T02:22:41.052Z,100358.18
2022-12-25T02:25:32.022Z,100361.82
2022-12-25T02:28:17.776Z,100361.55
2022-12-25T02:30:54.573Z,100361.92
2022-12-25T02:33:49.368Z,100366.58
2022-12-25T02:36:26.462Z,100373.90
2022-12-25T02:39:19.045Z,100365.91
2022-12-25T02:41:55.363Z,100373.27
2022-12-25T02:44:47.032Z,100368.22
2022-12-25T02:47:36.546Z,100369.59
2022-12-25T02:50:27.710Z,100370.31
2022-12-25T02:53:18.212Z,100366.84
2022-12-25T02:56:08.907Z,100367.71
2022-12-25T02:59:01.876Z,100361.77
2022-12-25T03:01:53.965Z,100365.45
2022-12-25T03:04:47.668Z,100374.95
2022-12-25T03:07:23.120Z,100373.90
2022-12-25T03:10:16.606Z,100379.61
2022-12-25T03:12:55.385Z,100384.25
2022-12-25T03:15:44.672Z,100386.59
2022-12-25T03:18:20.403Z,100383.87
2022-12-25T03:21:09.112Z,100380.61
2022-12-25T03:24:00.154Z,100374.75
2022-12-25T03:26:48.997Z,100371.05
2022-12-25T03:29:34.061Z,100382.37
2022-12-25T03:32:14.611Z,100389.52
2022-12-25T03:35:12.329Z,100391.06
2022-12-25T03:38:12.111Z,100390.89
2022-12-25T03:41:14.886Z,100388.62
2022-12-25T03:44:11.105Z,100391.52
2022-12-25T03:47:07.573Z,100398.51
2022-12-25T03:50:05.202Z,100402.67
2022-12-25T03:52:57.202Z,100408.99
2022-12-25T03:55:55.285Z,100404.50
2022-12-25T03:58:46.304Z,100403.35
2022-12-25T04:01:35.415Z,100408.07
2022-12-25T04:04:24.437Z,100403.75
2022-12-25T04:07:13.363Z,100407.35
2022-12-25T04:10:02.363Z,100406.27
2022-12-25T04:12:51.037Z,100407.80
2022-12-25T04:15:40.353Z,100406.60
2022-12-25T04:18:29.232Z,100406.58
2022-12-25T04:21:18.106Z,100410.22
2022-12-25T04:24:06.724Z,100415.92
2022-12-25T04:26:55.717Z,100416.41
2022-12-25T04:29:44.595Z,100422.45
2022-12-25T04:32:34.554Z,100429.52
2022-12-25T04:35:24.476Z,100429.73
2022-12-25T04:37:56.224Z,100432.40
2022-12-25T04:40:27.887Z,100435.45
2022-12-25T04:42:59.513Z,100438.23
2022-12-25T04:45:30.951Z,100436.41
2022-12-25T04:48:04.062Z,100432.27
2022-12-25T04:50:35.543Z,100430.42
2022-12-25T04:53:06.965Z,100432.19
2022-12-25T04:55:38.443Z,100430.73
2022-12-25T04:58:10.694Z,100427.33
2022-12-25T05:00:42.575Z,100425.36
2022-12-25T05:03:14.279Z,100433.20
2022-12-25T05:05:45.799Z,100436.34
2022-12-25T05:08:17.309Z,100435.33
2022-12-25T05:10:48.811Z,100438.62
2022-12-25T05:13:20.561Z,100439.52
2022-12-25T05:15:52.328Z,100437.24
2022-12-25T05:18:24.353Z,100438.80
2022-12-25T05:20:56.417Z,100446.63
2022-12-25T05:23:28.567Z,100441.81
2022-12-25T05:26:00.424Z,100444.79
2022-12-25T05:28:32.016Z,100448.80
2022-12-25T05:31:03.964Z,100449.94
2022-12-25T05:33:35.567Z,100449.63
2022-12-25T05:36:09.167Z,100451.09
2022-12-25T05:38:41.003Z,100453.28
2022-12-25T05:41:12.506Z,100462.08
2022-12-25T05:43:44.346Z,100469.27
2022-12-25T05:46:16.613Z,100471.53
2022-12-25T05:48:48.374Z,100475.80
2022-12-25T05:51:19.863Z,100476.42
2022-12-25T05:53:51.534Z,100482.75
2022-12-25T05:56:23.065Z,100483.56
2022-12-25T05:58:54.493Z,100480.81
2022-12-25T06:01:29.088Z,100483.33
2022-12-25T06:03:59.811Z,100483.88
2022-12-25T06:06:31.413Z,100488.01
2022-12-25T06:09:02.907Z,100495.52
2022-12-25T06:11:34.398Z,100504.27
2022-12-25T06:14:06.081Z,100505.80
2022-12-25T06:16:38.475Z,100499.81
2022-12-25T06:19:10.839Z,100511.32
2022-12-25T06:21:42.380Z,100517.13
2022-12-25T06:24:20.831Z,100523.20
2022-12-25T06:26:53.476Z,100527.85
2022-12-25T06:29:25.017Z,100524.80
2022-12-25T06:31:57.642Z,100531.85
2022-12-25T06:34:29.626Z,100538.94
2022-12-25T06:37:01.381Z,100553.20
2022-12-25T06:39:33.429Z,100558.45
2022-12-25T06:42:05.060Z,100567.17
2022-12-25T06:44:36.581Z,100571.30
2022-12-25T06:47:08.109Z,100572.35
2022-12-25T06:49:39.802Z,100575.83
2022-12-25T06:52:11.374Z,100576.83
2022-12-25T06:54:42.858Z,100576.92
2022-12-25T06:57:14.404Z,100583.30
2022-12-25T06:59:49.896Z,100585.48
2022-12-25T07:02:27.822Z,100588.10
2022-12-25T07:04:59.654Z,100593.77
2022-12-25T07:07:31.202Z,100602.59
2022-12-25T07:10:02.759Z,100602.41
2022-12-25T07:12:34.317Z,100601.81
2022-12-25T07:15:06.589Z,100610.14
2022-12-25T07:17:38.118Z,100614.87
2022-12-25T07:20:11.744Z,100619.88
2022-12-25T07:22:43.180Z,100623.47
2022-12-25T07:25:14.789Z,100627.89
2022-12-25T07:27:46.437Z,100630.69
2022-12-25T07:30:18.509Z,100634.08
2022-12-25T07:32:51.911Z,100638.37
2022-12-25T07:35:23.988Z,100642.19
2022-12-25T07:37:55.465Z,100645.80
2022-12-25T07:40:27.163Z,100649.64
2022-12-25T07:42:58.890Z,100653.02
2022-12-25T07:45:30.543Z,100656.91
2022-12-25T07:48:05.520Z,100664.34
2022-12-25T07:50:38.730Z,100666.48
2022-12-25T07:53:11.640Z,100667.20
2022-12-25T07:55:43.164Z,100671.59
2022-12-25T07:58:18.561Z,100676.25
2022-12-25T08:00:54.559Z,100676.46
2022-12-25T08:03:26.638Z,100676.52
2022-12-25T08:06:00.167Z,100678.92
2022-12-25T08:08:31.992Z,100677.67
2022-12-25T08:11:04.242Z,100676.23
2022-12-25T08:13:36.304Z,100679.05
2022-12-25T08:16:10.330Z,100681.01
2022-12-25T08:18:43.341Z,100685.08
2022-12-25T08:21:16.922Z,100688.26
2022-12-25T08:23:49.961Z,100689.86
2022-12-25T08:26:24.053Z,100688.59
2022-12-25T08:28:55.773Z,100692.56
2022-12-25T08:31:29.890Z,100693.55
2022-12-25T08:34:03.336Z,100694.73
2022-12-25T08:36:35.190Z,100694.42
2022-12-25T08:39:07.028Z,100696.05
2022-12-25T08:41:39.287Z,100701.13
2022-12-25T08:44:13.487Z,100708.02
2022-12-25T08:46:45.166Z,100704.77
2022-12-25T08:49:16.836Z,100706.89
2022-12-25T08:51:49.025Z,100707.95
2022-12-25T08:54:20.546Z,100704.44
2022-12-25T08:56:55.077Z,100706.50
2022-12-25T08:59:28.912Z,100706.09
2022-12-25T09:02:00.648Z,100711.44
2022-12-25T09:04:32.981Z,100715.95
2022-12-25T09:07:04.726Z,100717.95
2022-12-25T09:09:36.233Z,100721.91
2022-12-25T09:12:08.129Z,100717.07
2022-12-25T09:14:39.801Z,100713.03
2022-12-25T09:17:12.984Z,100715.14
2022-12-25T09:19:45.469Z,100713.32
2022-12-25T09:22:18.358Z,100714.30
2022-12-25T09:24:51.677Z,100716.55
2022-12-25T09:27:23.374Z,100716.97
2022-12-25T09:29:54.991Z,100722.07
2022-12-25T09:32:26.630Z,100719.42
2022-12-25T09:34:58.137Z,100721.10
2022-12-25T09:37:30.127Z,100725.23
2022-12-25T09:40:01.840Z,100731.84
2022-12-25T09:42:35.596Z,100725.59
2022-12-25T09:45:14.429Z,100725.84
2022-12-25T09:47:49.844Z,100726.60
2022-12-25T09:50:28.620Z,100724.25
2022-12-25T09:53:07.457Z,100719.61
2022-12-25T09:55:45.233Z,100710.19
2022-12-25T09:58:17.843Z,100706.52
2022-12-25T10:01:30.180Z,100706.49
2022-12-25T10:04:31.892Z,100703.80
2022-12-25T10:07:15.746Z,100709.76
2022-12-25T10:10:18.261Z,100706.64
2022-12-25T10:13:03.435Z,100707.85
2022-12-25T10:15:39.133Z,100709.11
2022-12-25T10:18:41.903Z,100707.02
2022-12-25T10:21:18.527Z,100716.67
2022-12-25T10:23:53.701Z,100715.35
2022-12-25T10:26:27.224Z,100718.05
2022-12-25T10:29:03.449Z,100719.42
2022-12-25T10:31:38.851Z,100719.95
2022-12-25T10:34:13.990Z,100721.41
2022-12-25T10:36:47.655Z,100721.85
2022-12-25T10:39:22.232Z,100717.73
2022-12-25T10:42:28.179Z,100715.11
2022-12-25T10:45:01.381Z,100712.08
2022-12-25T10:47:37.672Z,100713.34
2022-12-25T10:50:19.681Z,100714.52
2022-12-25T10:52:56.786Z,100713.27
2022-12-25T10:55:29.675Z,100711.79
2022-12-25T10:58:02.279Z,100715.25
2022-12-25T11:00:35.516Z,100718.18
2022-12-25T11:03:07.451Z,100719.46
2022-12-25T11:05:39.561Z,100716.77
2022-12-25T11:08:23.322Z,100717.02
2022-12-25T11:11:06.656Z,100713.98
2022-12-25T11:13:42.462Z,100713.91
2022-12-25T11:16:26.746Z,100715.69
2022-12-25T11:18:59.622Z,100714.27
2022-12-25T11:21:32.992Z,100714.36
2022-12-25T11:24:06.604Z,100720.30
2022-12-25T11:26:50.429Z,100712.59
2022-12-25T11:29:30.730Z,100712.20
2022-12-25T11:32:04.233Z,100710.14
2022-12-25T11:34:38.820Z,100711.77
2022-12-25T11:37:17.355Z,100717.70
2022-12-25T11:39:49.544Z,100710.44
2022-12-25T11:42:26.816Z,100714.09
2022-12-25T11:45:03.991Z,100717.08
2022-12-25T11:47:40.031Z,100713.64
2022-12-25T11:50:23.915Z,100714.86
2022-12-25T11:52:56.794Z,100709.59
2022-12-25T11:55:35.822Z,100710.61
2022-12-25T11:58:15.035Z,100707.75
2022-12-25T12:00:51.421Z,100706.83
2022-12-25T12:03:28.859Z,100711.93
2022-12-25T12:06:03.962Z,100707.95
2022-12-25T12:08:37.063Z,100703.98
2022-12-25T12:11:18.645Z,100696.67
2022-12-25T12:14:07.634Z,100701.56
2022-12-25T12:16:39.699Z,100706.08
2022-12-25T12:19:29.130Z,100711.22
2022-12-25T12:22:03.028Z,100712.15
2022-12-25T12:24:39.935Z,100707.73
2022-12-25T12:27:24.060Z,100705.01
2022-12-25T12:29:58.429Z,100704.16
2022-12-25T12:32:46.405Z,100704.23
2022-12-25T12:35:21.643Z,100695.17
2022-12-25T12:37:56.504Z,100698.96
2022-12-25T12:40:37.091Z,100704.44
2022-12-25T12:43:25.974Z,100702.48
2022-12-25T12:46:03.640Z,100704.66
2022-12-25T12:48:42.359Z,100705.86
2022-12-25T12:51:15.805Z,100700.98
2022-12-25T12:53:47.396Z,100704.90
2022-12-25T12:56:21.825Z,100701.96
2022-12-25T12:58:53.672Z,100705.58
2022-12-25T13:01:44.363Z,100701.38
2022-12-25T13:04:47.669Z,100701.10
2022-12-25T13:07:33.687Z,100710.70
2022-12-25T13:10:23.170Z,100713.02
2022-12-25T13:12:59.716Z,100715.51
2022-12-25T13:15:34.458Z,100724.95
2022-12-25T13:18:07.261Z,100733.60
2022-12-25T13:20:47.550Z,100739.54
2022-12-25T13:23:28.308Z,100739.48
2022-12-25T13:26:01.386Z,100745.86
2022-12-25T13:28:34.935Z,100747.21
2022-12-25T13:31:15.208Z,100747.68
2022-12-25T13:33:50.530Z,100750.62
2022-12-25T13:36:22.352Z,100751.74
2022-12-25T13:38:56.758Z,100750.25
2022-12-25T13:41:53.671Z,100751.24
2022-12-25T13:44:29.033Z,100752.70
2022-12-25T13:47:16.575Z,100750.42
2022-12-25T13:49:49.058Z,100744.84
2022-12-25T13:52:21.851Z,100747.35
2022-12-25T13:55:00.574Z,100752.22
2022-12-25T13:57:36.087Z,100756.90
2022-12-25T14:00:18.365Z,100758.07
2022-12-25T14:02:50.734Z,100761.58
2022-12-25T14:05:42.863Z,100764.04
2022-12-25T14:08:20.849Z,100763.44
2022-12-25T14:10:54.590Z,100760.95
2022-12-25T14:13:30.219Z,100757.48
2022-12-25T14:16:02.550Z,100753.02
2022-12-25T14:18:35.654Z,100746.90
2022-12-25T14:21:12.566Z,100744.47
2022-12-25T14:23:46.880Z,100744.81
2022-12-25T14:26:24.115Z,100743.29
2022-12-25T14:28:59.395Z,100747.35
2022-12-25T14:31:33.081Z,100748.68
2022-12-25T14:34:06.852Z,100742.60
2022-12-25T14:36:39.066Z,100743.89
2022-12-25T14:39:29.555Z,100744.11
2022-12-25T14:42:02.128Z,100744.48
2022-12-25T14:44:39.045Z,100747.27
2022-12-25T14:47:18.034Z,100751.46
2022-12-25T14:49:49.956Z,100749.52
2022-12-25T14:52:24.697Z,100750.41
2022-12-25T14:54:55.918Z,100756.96
2022-12-25T14:57:31.352Z,100762.16
2022-12-25T15:00:07.880Z,100766.17
2022-12-25T15:02:46.013Z,100765.21
2022-12-25T15:05:41.012Z,100767.48
2022-12-25T15:08:27.340Z,100772.77
2022-12-25T15:11:02.308Z,100774.67
2022-12-25T15:13:34.645Z,100774.58
2022-12-25T15:16:14.642Z,100767.21
2022-12-25T15:18:48.481Z,100763.40
2022-12-25T15:21:24.749Z,100759.38
2022-12-25T15:23:58.419Z,100767.11
2022-12-25T15:26:32.157Z,100766.03
2022-12-25T15:29:03.744Z,100764.91
2022-12-25T15:31:37.902Z,100767.30
2022-12-25T15:34:22.235Z,100771.23
2022-12-25T15:36:53.864Z,100770.77
2022-12-25T15:39:25.359Z,100771.60
2022-12-25T15:42:14.992Z,100772.73
2022-12-25T15:44:47.324Z,100777.50
2022-12-25T15:47:20.383Z,100779.79
2022-12-25T15:49:52.350Z,100775.45
2022-12-25T15:52:23.990Z,100775.96
2022-12-25T15:54:55.665Z,100777.59
2022-12-25T15:57:27.221Z,100775.38
2022-12-25T15:59:58.880Z,100774.55
2022-12-25T16:02:30.577Z,100773.86
2022-12-25T16:05:09.961Z,100776.94
2022-12-25T16:07:42.125Z,100777.28
2022-12-25T16:10:18.210Z,100780.55
2022-12-25T16:12:49.783Z,100780.73
2022-12-25T16:15:21.420Z,100783.40
2022-12-25T16:17:52.912Z,100786.16
2022-12-25T16:20:24.464Z,100785.21
2022-12-25T16:22:55.866Z,100784.63
2022-12-25T16:25:27.634Z,100783.02
2022-12-25T16:27:59.166Z,100782.90
2022-12-25T16:30:31.096Z,100781.30
2022-12-25T16:33:02.741Z,100776.54
2022-12-25T16:35:34.852Z,100770.09
2022-12-25T16:38:06.876Z,100760.05
2022-12-25T16:40:38.576Z,100764.66
2022-12-25T16:43:10.373Z,100763.63
2022-12-25T16:45:42.881Z,100763.89
2022-12-25T16:48:14.915Z,100762.77
2022-12-25T16:50:46.601Z,100756.00
2022-12-25T16:53:18.573Z,100752.42
2022-12-25T16:55:51.899Z,100751.25
2022-12-25T16:58:23.578Z,100744.73
2022-12-25T17:00:55.451Z,100742.36
2022-12-25T17:03:27.343Z,100733.23
2022-12-25T17:05:58.822Z,100732.24
2022-12-25T17:08:30.581Z,100734.92
2022-12-25T17:11:05.661Z,100737.17
2022-12-25T17:13:37.519Z,100738.58
2022-12-25T17:16:18.211Z,100742.23
2022-12-25T17:18:54.268Z,100732.95
2022-12-25T17:21:26.696Z,100721.89
2022-12-25T17:24:03.088Z,100716.95
2022-12-25T17:26:35.803Z,100722.00
2022-12-25T17:29:07.458Z,100720.89
2022-12-25T17:31:39.942Z,100719.96
2022-12-25T17:34:12.647Z,100732.10
2022-12-25T17:36:45.109Z,100726.58
2022-12-25T17:39:16.812Z,100719.52
2022-12-25T17:41:50.274Z,100720.05
2022-12-25T17:44:22.845Z,100722.90
2022-12-25T17:46:54.750Z,100717.27
2022-12-25T17:49:26.409Z,100723.59
2022-12-25T17:51:58.768Z,100730.79
2022-12-25T17:54:30.290Z,100743.19
2022-12-25T17:57:01.938Z,100750.84
2022-12-25T17:59:33.679Z,100750.34
2022-12-25T18:02:05.492Z,100747.67
2022-12-25T18:04:37.121Z,100750.59
2022-12-25T18:07:08.715Z,100745.55
2022-12-25T18:09:40.661Z,100745.66
2022-12-25T18:12:12.486Z,100748.70
2022-12-25T18:14:44.258Z,100743.21
2022-12-25T18:17:15.872Z,100741.05
2022-12-25T18:19:47.538Z,100738.86
2022-12-25T18:22:19.654Z,100740.21
2022-12-25T18:24:51.480Z,100738.54
2022-12-25T18:27:23.140Z,100731.56
2022-12-25T18:29:54.709Z,100729.14
2022-12-25T18:32:28.156Z,100716.23
2022-12-25T18:35:00.117Z,100709.83
2022-12-25T18:37:35.906Z,100708.15
2022-12-25T18:40:12.631Z,100705.42
2022-12-25T18:42:46.823Z,100702.27
2022-12-25T18:45:20.138Z,100706.06
2022-12-25T18:47:52.040Z,100706.10
2022-12-25T18:50:38.675Z,100708.83
2022-12-25T18:53:10.959Z,100699.01
2022-12-25T18:55:45.221Z,100695.45
2022-12-25T18:58:17.128Z,100690.58
2022-12-25T19:00:48.898Z,100697.07
2022-12-25T19:03:20.557Z,100700.73
2022-12-25T19:05:52.241Z,100697.27
2022-12-25T19:08:24.049Z,100700.69
2022-12-25T19:10:56.000Z,100701.13
2022-12-25T19:13:27.872Z,100695.23
2022-12-25T19:16:02.868Z,100690.94
2022-12-25T19:18:37.380Z,100685.89
2022-12-25T19:21:11.320Z,100684.97
2022-12-25T19:23:43.269Z,100683.48
2022-12-25T19:26:15.190Z,100681.70
2022-12-25T19:28:46.827Z,100673.39
2022-12-25T19:31:19.448Z,100662.77
2022-12-25T19:33:51.990Z,100655.14
2022-12-25T19:36:24.337Z,100665.17
2022-12-25T19:38:56.935Z,100667.98
2022-12-25T19:41:29.383Z,100663.09
2022-12-25T19:44:01.483Z,100653.42
2022-12-25T19:46:35.670Z,100650.55
2022-12-25T19:49:08.398Z,100652.70
2022-12-25T19:51:43.337Z,100649.64
2022-12-25T19:54:17.550Z,100649.21
2022-12-25T19:56:50.336Z,100658.96
2022-12-25T19:59:22.397Z,100651.29
2022-12-25T20:01:54.943Z,100640.58
2022-12-25T20:04:26.626Z,100634.85
2022-12-25T20:06:59.103Z,100637.30
2022-12-25T20:09:33.085Z,100637.07
2022-12-25T20:12:05.377Z,100631.30
2022-12-25T20:14:37.457Z,100623.35
2022-12-25T20:17:15.568Z,100620.81
2022-12-25T20:19:47.687Z,100606.91
2022-12-25T20:22:19.371Z,100614.90
2022-12-25T20:24:50.975Z,100619.93
2022-12-25T20:27:23.406Z,100624.54
2022-12-25T20:29:56.066Z,100624.02
2022-12-25T20:32:28.993Z,100618.02
2022-12-25T20:35:02.355Z,100610.27
2022-12-25T20:37:34.155Z,100608.51
2022-12-25T20:40:08.179Z,100606.46
2022-12-25T20:42:40.521Z,100604.13
2022-12-25T20:45:13.498Z,100604.38
2022-12-25T20:47:45.933Z,100602.75
2022-12-25T20:50:18.357Z,100594.05
2022-12-25T20:52:50.031Z,100593.23
2022-12-25T20:55:22.163Z,100587.98
2022-12-25T20:57:54.200Z,100579.92
2022-12-25T21:00:26.717Z,100577.04
2022-12-25T21:02:58.993Z,100577.34
2022-12-25T21:05:31.771Z,100572.44
2022-12-25T21:08:03.552Z,100562.73
2022-12-25T21:10:36.732Z,100560.34
2022-12-25T21:13:08.747Z,100558.38
2022-12-25T21:15:44.102Z,100554.55
2022-12-25T21:18:16.711Z,100554.43
2022-12-25T21:20:51.665Z,100548.01
2022-12-25T21:23:24.215Z,100548.24
2022-12-25T21:25:56.272Z,100544.52
2022-12-25T21:28:30.451Z,100547.83
2022-12-25T21:31:07.072Z,100538.83
2022-12-25T21:33:55.371Z,100538.13
2022-12-25T21:36:29.324Z,100540.05
2022-12-25T21:39:04.382Z,100535.73
2022-12-25T21:41:40.587Z,100526.23
2022-12-25T21:44:14.466Z,100524.91
2022-12-25T21:46:46.560Z,100534.96
2022-12-25T21:49:39.255Z,100537.70
2022-12-25T21:52:11.199Z,100530.48
2022-12-25T21:54:43.117Z,100527.61
2022-12-25T21:57:14.570Z,100519.38
2022-12-25T21:59:46.526Z,100520.51
2022-12-25T22:02:19.103Z,100524.77
2022-12-25T22:04:51.290Z,100516.25
2022-12-25T22:07:23.110Z,100514.92
2022-12-25T22:09:55.023Z,100507.27
2022-12-25T22:12:43.942Z,100501.23
2022-12-25T22:15:15.652Z,100496.41
2022-12-25T22:18:04.447Z,100488.59
2022-12-25T22:20:39.585Z,100484.50
2022-12-25T22:23:11.171Z,100485.20
2022-12-25T22:25:43.115Z,100474.63
2022-12-25T22:28:15.330Z,100465.53
2022-12-25T22:30:46.816Z,100465.25
2022-12-25T22:33:20.771Z,100460.79
2022-12-25T22:35:52.599Z,100455.52
2022-12-25T22:38:24.179Z,100447.93
2022-12-25T22:40:55.690Z,100442.04
2022-12-25T22:43:50.633Z,100430.16
2022-12-25T22:46:19.082Z,100424.74
2022-12-25T22:48:51.619Z,100419.66
2022-12-25T22:51:23.392Z,100414.14
2022-12-25T22:53:58.803Z,100407.37
2022-12-25T22:56:34.965Z,100398.41
2022-12-25T22:59:06.730Z,100394.14
2022-12-25T23:01:38.960Z,100391.65
2022-12-25T23:04:10.771Z,100386.27
2022-12-25T23:06:43.147Z,100390.91
2022-12-25T23:09:24.180Z,100394.26
2022-12-25T23:11:56.953Z,100400.25
2022-12-25T23:14:41.222Z,100390.95
2022-12-25T23:17:28.755Z,100394.40
2022-12-25T23:20:18.934Z,100392.35
2022-12-25T23:23:07.749Z,100398.95
2022-12-25T23:25:56.714Z,100408.70
2022-12-25T23:28:50.920Z,100408.60
2022-12-25T23:31:25.437Z,100398.78
2022-12-25T23:33:57.036Z,100388.95
2022-12-25T23:36:29.201Z,100383.23
2022-12-25T23:39:08.567Z,100375.63
2022-12-25T23:41:42.128Z,100368.36
2022-12-25T23:44:15.439Z,100360.75
2022-12-25T23:46:53.137Z,100361.60
2022-12-25T23:49:25.880Z,100359.94
2022-12-25T23:51:57.939Z,100362.09
2022-12-25T23:54:31.531Z,100357.86
2022-12-25T23:57:03.257Z,100359.76
2022-12-25T23:59:35.024Z,100356.73
